.
WxDataArchive / Data Records for 2014-12-10
2014-12-09 December 2014 2014-12-11

Data Records for Wednesday, 10 December 2014

Time	Temp	Chill	HIndex	Humid	Dewpt	 Wind 	HiWind	WindDir	Rain 	Barom
-----	----	-----	------	-----	-----	------	------	-------	-----	-----
00:00	35.2	35.2	35.2	79	29.4	1	3	292	0.00	30.280 
00:05	35.2	35.2	35.2	79	29.4	1	3	292	0.00	30.280 
00:10	35.0	35.0	35.0	79	29.2	1	5	315	0.00	30.280 
00:15	35.0	35.0	35.0	78	28.8	1	3	315	0.00	30.280 
00:20	35.0	35.0	35.0	78	28.8	1	3	315	0.00	30.280 
00:25	35.0	35.0	35.0	78	28.8	1	3	0	0.00	30.280 
00:30	35.0	35.0	35.0	78	28.8	1	3	315	0.00	30.277 
00:35	34.9	34.9	34.9	79	29.1	0	2	315	0.00	30.277 
00:40	34.9	34.9	34.9	79	29.1	0	2	315	0.00	30.277 
00:45	34.9	34.9	34.9	79	29.1	0	3	315	0.00	30.277 
00:50	34.7	34.7	34.7	78	28.6	1	4	315	0.00	30.277 
00:55	34.7	34.7	34.7	78	28.6	0	2	315	0.00	30.277 
01:00	34.6	34.6	34.6	76	27.8	1	3	315	0.00	30.275 
01:05	34.6	34.6	34.6	75	27.5	1	7	315	0.00	30.275 
01:10	34.4	34.4	34.4	74	27.0	1	3	315	0.00	30.275 
01:15	34.4	34.4	34.4	74	27.0	0	2	315	0.00	30.282 
01:20	34.3	34.3	34.3	73	26.6	1	5	315	0.00	30.282 
01:25	34.3	34.3	34.3	71	25.9	2	4	0	0.00	30.282 
01:30	34.1	34.1	34.1	71	25.7	1	5	338	0.00	30.285 
01:35	34.1	34.1	34.1	71	25.7	0	3	338	0.00	30.285 
01:40	34.1	34.1	34.1	71	25.7	1	3	338	0.00	30.285 
01:45	34.1	34.1	34.1	71	25.7	1	4	338	0.00	30.284 
01:50	34.1	34.1	34.1	71	25.7	0	2	292	0.00	30.284 
01:55	34.0	34.0	34.0	72	25.9	1	2	292	0.00	30.284 
02:00	34.0	34.0	34.0	72	25.9	0	3	292	0.00	30.282 
02:05	34.0	34.0	34.0	72	25.9	0	3	292	0.00	30.282 
02:10	33.8	33.8	33.8	73	26.1	1	3	292	0.00	30.282 
02:15	33.8	33.8	33.8	73	26.1	0	1	292	0.00	30.283 
02:20	33.8	33.8	33.8	73	26.1	0	1	292	0.00	30.283 
02:25	33.8	33.8	33.8	74	26.4	1	3	292	0.00	30.283 
02:30	33.7	33.7	33.7	73	26.0	1	3	292	0.00	30.284 
02:35	33.7	33.7	33.7	74	26.3	0	3	292	0.00	30.284 
02:40	33.7	33.7	33.7	74	26.3	0	3	292	0.00	30.284 
02:45	33.5	33.5	33.5	74	26.1	1	3	292	0.00	30.288 
02:50	33.5	33.5	33.5	74	26.1	1	3	68	0.00	30.288 
02:55	33.5	33.5	33.5	73	25.8	1	3	292	0.00	30.288 
03:00	33.4	33.4	33.4	73	25.7	0	3	292	0.00	30.291 
03:05	33.4	33.4	33.4	73	25.7	1	4	0	0.00	30.291 
03:10	33.4	33.4	33.4	73	25.7	1	3	0	0.00	30.291 
03:15	33.4	33.4	33.4	73	25.7	1	4	0	0.00	30.290 
03:20	33.4	33.4	33.4	73	25.7	0	2	0	0.00	30.290 
03:25	33.4	33.4	33.4	73	25.7	0	2	0	0.00	30.290 
03:30	33.2	33.2	33.2	74	25.8	0	2	0	0.00	30.288 
03:35	33.2	33.2	33.2	74	25.8	1	2	0	0.00	30.288 
03:40	33.2	33.2	33.2	74	25.8	1	5	338	0.00	30.288 
03:45	33.1	33.1	33.1	74	25.7	1	3	338	0.00	30.286 
03:50	33.1	33.1	33.1	73	25.4	0	3	338	0.00	30.286 
03:55	33.1	33.1	33.1	73	25.4	0	1	338	0.00	30.286 
04:00	33.1	33.1	33.1	73	25.4	0	3	338	0.00	30.285 
04:05	33.1	33.1	33.1	74	25.7	1	4	338	0.00	30.285 
04:10	32.9	32.9	32.9	74	25.5	0	3	338	0.00	30.285 
04:15	32.9	32.9	32.9	74	25.5	0	4	338	0.00	30.286 
04:20	32.9	32.9	32.9	73	25.2	1	2	338	0.00	30.286 
04:25	32.8	32.8	32.8	72	24.8	2	5	338	0.00	30.286 
04:30	32.9	32.9	32.9	72	24.9	1	2	0	0.00	30.285 
04:35	32.8	32.8	32.8	73	25.1	1	3	0	0.00	30.285 
04:40	32.8	32.8	32.8	73	25.1	0	3	0	0.00	30.285 
04:45	32.8	32.8	32.8	73	25.1	1	3	0	0.00	30.286 
04:50	32.7	32.7	32.7	73	25.0	1	3	0	0.00	30.286 
04:55	32.7	32.7	32.7	73	25.0	0	2	0	0.00	30.286 
05:00	32.7	32.7	32.7	73	25.0	1	4	0	0.00	30.284 
05:05	32.7	32.7	32.7	73	25.0	0	2	0	0.00	30.284 
05:10	32.5	32.5	32.5	73	24.8	0	2	0	0.00	30.284 
05:15	32.5	32.5	32.5	73	24.8	0	2	0	0.00	30.280 
05:20	32.4	32.4	32.4	73	24.7	0	2	0	0.00	30.280 
05:25	32.4	32.4	32.4	73	24.7	1	5	0	0.00	30.280 
05:30	32.2	32.2	32.2	72	24.2	1	4	338	0.00	30.280 
05:35	32.2	32.2	32.2	72	24.2	1	4	0	0.00	30.280 
05:40	32.2	32.2	32.2	73	24.5	0	4	338	0.00	30.280 
05:45	32.2	32.2	32.2	73	24.5	1	3	0	0.00	30.277 
05:50	32.1	32.1	32.1	73	24.4	0	3	0	0.00	30.277 
05:55	32.1	32.1	32.1	74	24.8	0	2	0	0.00	30.277 
06:00	32.1	32.1	32.1	74	24.8	0	2	0	0.00	30.278 
06:05	31.9	31.9	31.9	74	24.6	0	2	0	0.00	30.278 
06:10	31.9	31.9	31.9	74	24.6	0	3	0	0.00	30.278 
06:15	31.9	31.9	31.9	74	24.6	1	3	0	0.00	30.282 
06:20	31.8	31.8	31.8	74	24.5	1	4	0	0.00	30.282 
06:25	31.8	31.8	31.8	73	24.1	1	4	0	0.00	30.282 
06:30	31.8	31.8	31.8	73	24.1	1	4	0	0.00	30.284 
06:35	31.8	31.8	31.8	73	24.1	1	4	338	0.00	30.284 
06:40	31.8	31.8	31.8	73	24.1	0	3	338	0.00	30.284 
06:45	31.8	31.8	31.8	74	24.5	0	1	338	0.00	30.281 
06:50	31.6	31.6	31.6	74	24.3	0	2	338	0.00	30.281 
06:55	31.6	31.6	31.6	74	24.3	0	1	338	0.00	30.281 
07:00	31.6	31.6	31.6	74	24.3	0	2	338	0.00	30.284 
07:05	31.6	31.6	31.6	74	24.3	0	2	338	0.00	30.284 
07:10	31.6	31.6	31.6	74	24.3	0	3	292	0.00	30.284 
07:15	31.6	31.6	31.6	74	24.3	0	1	292	0.00	30.285 
07:20	31.5	31.5	31.5	74	24.2	0	2	292	0.00	30.285 
07:25	31.5	31.5	31.5	74	24.2	1	4	292	0.00	30.285 
07:30	31.5	31.5	31.5	74	24.2	1	3	292	0.00	30.286 
07:35	31.5	31.5	31.5	74	24.2	1	5	292	0.00	30.286 
07:40	31.3	31.3	31.3	74	24.0	1	4	315	0.00	30.286 
07:45	31.3	31.3	31.3	74	24.0	1	4	315	0.00	30.288 
07:50	31.3	31.3	31.3	74	24.0	1	3	315	0.00	30.288 
07:55	31.3	31.3	31.3	75	24.3	0	2	315	0.00	30.288 
08:00	31.3	31.3	31.3	75	24.3	0	2	315	0.00	30.292 
08:05	31.3	31.3	31.3	75	24.3	1	4	315	0.00	30.292 
08:10	31.2	31.2	31.2	75	24.2	1	3	315	0.00	30.292 
08:15	31.2	31.2	31.2	75	24.2	1	4	315	0.00	30.295 
08:20	31.2	31.2	31.2	75	24.2	1	3	292	0.00	30.295 
08:25	31.2	31.2	31.2	75	24.2	0	3	292	0.00	30.295 
08:30	31.2	31.2	31.2	75	24.2	1	4	338	0.00	30.299 
08:35	31.2	31.2	31.2	75	24.2	1	4	338	0.00	30.299 
08:40	31.2	31.2	31.2	75	24.2	0	2	338	0.00	30.299 
08:45	31.2	31.2	31.2	75	24.2	1	4	292	0.00	30.304 
08:50	31.2	31.2	31.2	75	24.2	1	3	292	0.00	30.304 
08:55	31.2	31.2	31.2	74	23.9	2	5	292	0.00	30.304 
09:00	31.2	31.2	31.2	74	23.9	1	4	292	0.00	30.304 
09:05	31.2	31.2	31.2	74	23.9	1	3	338	0.00	30.304 
09:10	31.2	31.2	31.2	73	23.6	2	6	0	0.00	30.304 
09:15	31.2	31.2	31.2	74	23.9	0	4	338	0.00	30.308 
09:20	31.2	31.2	31.2	74	23.9	0	2	338	0.00	30.308 
09:25	31.2	31.2	31.2	74	23.9	1	5	338	0.00	30.308 
09:30	31.2	31.2	31.2	73	23.6	0	3	338	0.00	30.308 
09:35	31.3	31.3	31.3	73	23.7	0	3	45	0.00	30.308 
09:40	31.3	31.3	31.3	73	23.7	0	2	22	0.00	30.308 
09:45	31.3	31.3	31.3	72	23.3	0	3	0	0.00	30.314 
09:50	31.3	31.3	31.3	73	23.7	0	1	0	0.00	30.314 
09:55	31.3	31.3	31.3	73	23.7	1	4	338	0.00	30.314 
10:00	31.3	31.3	31.3	73	23.7	1	5	338	0.00	30.317 
10:05	31.3	31.3	31.3	73	23.7	0	3	270	0.00	30.317 
10:10	31.3	31.3	31.3	73	23.7	0	2	270	0.00	30.317 
10:15	31.3	31.3	31.3	73	23.7	1	4	270	0.00	30.317 
10:20	31.3	31.3	31.3	73	23.7	1	4	292	0.00	30.317 
10:25	31.3	31.3	31.3	72	23.3	1	4	0	0.00	30.317 
10:30	31.3	31.3	31.3	72	23.3	1	4	0	0.00	30.321 
10:35	31.3	31.3	31.3	72	23.3	2	7	338	0.00	30.321 
10:40	31.3	31.3	31.3	73	23.7	0	2	292	0.00	30.321 
10:45	31.5	31.5	31.5	73	23.9	1	2	292	0.00	30.315 
10:50	31.5	31.5	31.5	73	23.9	1	3	292	0.00	30.315 
10:55	31.5	31.5	31.5	73	23.9	1	3	292	0.00	30.315 
11:00	31.5	31.5	31.5	73	23.9	1	3	315	0.00	30.310 
11:05	31.5	31.5	31.5	73	23.9	1	3	315	0.00	30.310 
11:10	31.5	31.5	31.5	72	23.5	1	4	315	0.00	30.310 
11:15	31.5	31.5	31.5	72	23.5	1	2	315	0.00	30.310 
11:20	31.3	31.3	31.3	72	23.3	1	4	338	0.00	30.310 
11:25	31.5	31.5	31.5	72	23.5	1	3	338	0.00	30.310 
11:30	31.5	31.5	31.5	72	23.5	1	5	338	0.00	30.308 
11:35	31.5	31.5	31.5	72	23.5	0	2	338	0.00	30.308 
11:40	31.5	31.5	31.5	72	23.5	1	3	338	0.00	30.308 
11:45	31.5	31.5	31.5	71	23.2	0	2	45	0.00	30.303 
11:50	31.6	31.6	31.6	70	23.0	1	3	315	0.00	30.303 
11:55	31.6	31.6	31.6	70	23.0	1	3	315	0.00	30.303 
12:00	31.6	31.6	31.6	70	23.0	0	3	315	0.00	30.292 
12:05	31.8	31.8	31.8	71	23.5	1	2	315	0.00	30.292 
12:10	31.6	31.6	31.6	71	23.3	2	5	315	0.00	30.292 
12:15	31.6	31.6	31.6	72	23.6	2	6	315	0.00	30.289 
12:20	31.5	31.5	31.5	72	23.5	2	4	0	0.00	30.289 
12:25	31.5	31.5	31.5	72	23.5	2	4	292	0.00	30.289 
12:30	31.6	31.6	31.6	72	23.6	2	4	0	0.00	30.286 
12:35	31.6	31.6	31.6	71	23.3	2	5	315	0.00	30.286 
12:40	31.6	31.6	31.6	71	23.3	1	4	315	0.00	30.286 
12:45	31.8	31.8	31.8	71	23.5	1	3	315	0.00	30.277 
12:50	32.1	32.1	32.1	71	23.8	0	1	292	0.00	30.277 
12:55	32.2	32.2	32.2	70	23.5	0	3	292	0.00	30.277 
13:00	32.1	32.1	32.1	71	23.8	1	4	292	0.00	30.267 
13:05	31.9	31.9	31.9	71	23.6	2	5	292	0.00	30.267 
13:10	31.9	31.9	31.9	71	23.6	1	4	292	0.00	30.267 
13:15	32.1	32.1	32.1	70	23.4	0	2	315	0.00	30.261 
13:20	32.2	32.2	32.2	69	23.2	1	4	315	0.00	30.261 
13:25	32.2	32.2	32.2	69	23.2	0	3	315	0.00	30.261 
13:30	32.2	32.2	32.2	69	23.2	0	2	315	0.00	30.257 
13:35	32.4	32.4	32.4	69	23.4	0	2	0	0.00	30.257 
13:40	32.5	32.5	32.5	70	23.8	0	2	0	0.00	30.257 
13:45	32.5	32.5	32.5	69	23.5	1	4	338	0.00	30.252 
13:50	32.4	32.4	32.4	70	23.7	1	3	338	0.00	30.252 
13:55	32.2	32.2	32.2	70	23.5	1	4	315	0.00	30.252 
14:00	32.2	32.2	32.2	69	23.2	2	4	338	0.00	30.247 
14:05	32.1	32.1	32.1	69	23.1	1	3	270	0.00	30.247 
14:10	32.1	32.1	32.1	69	23.1	1	3	270	0.00	30.247 
14:15	32.1	32.1	32.1	69	23.1	0	2	270	0.00	30.245 
14:20	32.2	32.2	32.2	69	23.2	1	3	270	0.00	30.245 
14:25	32.4	32.4	32.4	69	23.4	1	3	338	0.00	30.245 
14:30	32.5	32.5	32.5	70	23.8	1	3	292	0.00	30.239 
14:35	32.7	32.7	32.7	69	23.7	2	5	338	0.00	30.239 
14:40	32.4	32.4	32.4	68	23.0	2	4	315	0.00	30.239 
14:45	32.4	32.4	32.4	68	23.0	1	4	292	0.00	30.237 
14:50	32.4	32.4	32.4	68	23.0	0	2	338	0.00	30.237 
14:55	32.5	32.5	32.5	68	23.1	2	6	338	0.00	30.237 
15:00	32.7	32.7	32.7	69	23.7	1	5	338	0.00	30.233 
15:05	32.7	32.7	32.7	68	23.3	1	5	338	0.00	30.233 
15:10	32.5	32.5	32.5	67	22.8	2	5	0	0.00	30.233 
15:15	32.5	32.5	32.5	68	23.1	1	4	315	0.00	30.232 
15:20	32.8	32.8	32.8	67	23.1	1	4	315	0.00	30.232 
15:25	33.1	33.1	33.1	67	23.4	2	5	292	0.00	30.232 
15:30	33.5	33.5	33.5	65	23.0	1	3	292	0.00	30.230 
15:35	33.2	33.2	33.2	65	22.7	1	3	292	0.00	30.230 
15:40	32.7	32.7	32.7	65	22.3	1	4	292	0.00	30.230 
15:45	32.2	32.2	32.2	67	22.5	0	3	292	0.00	30.229 
15:50	32.2	32.2	32.2	68	22.8	1	3	292	0.00	30.229 
15:55	32.2	32.2	32.2	69	23.2	2	4	292	0.00	30.229 
16:00	32.2	32.2	32.2	69	23.2	1	4	338	0.00	30.228 
16:05	32.1	32.1	32.1	68	22.7	2	5	338	0.00	30.228 
16:10	31.9	31.9	31.9	68	22.6	1	4	338	0.00	30.228 
16:15	31.9	31.9	31.9	69	22.9	0	2	292	0.00	30.228 
16:20	31.9	31.9	31.9	68	22.6	1	3	292	0.00	30.228 
16:25	31.8	31.8	31.8	68	22.5	1	3	292	0.00	30.228 
16:30	31.8	31.8	31.8	68	22.5	1	3	292	0.00	30.229 
16:35	31.5	31.5	31.5	68	22.2	1	3	292	0.00	30.229 
16:40	31.3	31.3	31.3	68	22.0	1	5	315	0.00	30.229 
16:45	31.2	31.2	31.2	69	22.2	0	2	315	0.00	30.225 
16:50	31.0	31.0	31.0	70	22.4	1	3	315	0.00	30.225 
16:55	30.9	30.9	30.9	70	22.3	1	4	338	0.00	30.225 
17:00	30.9	30.9	30.9	70	22.3	0	1	338	0.00	30.227 
17:05	30.7	30.7	30.7	71	22.4	0	2	338	0.00	30.227 
17:10	30.7	30.7	30.7	71	22.4	0	2	338	0.00	30.227 
17:15	30.7	30.7	30.7	72	22.8	1	3	338	0.00	30.228 
17:20	30.6	30.6	30.6	72	22.7	0	2	292	0.00	30.228 
17:25	30.3	30.3	30.3	72	22.4	0	2	292	0.00	30.228 
17:30	30.1	30.1	30.1	72	22.2	0	0	---	0.00	30.228 
17:35	30.0	30.0	30.0	73	22.4	0	1	292	0.00	30.228 
17:40	29.8	29.8	29.8	73	22.2	0	3	292	0.00	30.228 
17:45	29.7	29.7	29.7	73	22.1	0	1	292	0.00	30.227 
17:50	29.5	29.5	29.5	73	21.9	0	1	292	0.00	30.227 
17:55	29.4	29.4	29.4	74	22.2	0	0	---	0.00	30.227 
18:00	29.1	29.1	29.1	74	21.9	0	0	---	0.00	30.225 
18:05	29.0	29.0	29.0	75	22.1	0	0	---	0.00	30.225 
18:10	28.8	28.8	28.8	75	21.9	0	0	---	0.00	30.225 
18:15	28.7	28.7	28.7	75	21.8	0	0	---	0.00	30.222 
18:20	28.5	28.5	28.5	76	21.9	0	0	---	0.00	30.222 
18:25	28.4	28.4	28.4	76	21.8	0	0	---	0.00	30.222 
18:30	28.2	28.2	28.2	77	21.9	0	0	---	0.00	30.225 
18:35	28.1	28.1	28.1	77	21.8	0	0	---	0.00	30.225 
18:40	28.1	28.1	28.1	77	21.8	0	0	---	0.00	30.225 
18:45	27.8	27.8	27.8	77	21.5	0	0	---	0.00	30.228 
18:50	27.6	27.6	27.6	77	21.4	0	0	---	0.00	30.228 
18:55	27.6	27.6	27.6	78	21.7	0	0	---	0.00	30.228 
19:00	27.5	27.5	27.5	78	21.6	0	0	---	0.00	30.225 
19:05	27.2	27.2	27.2	78	21.3	0	0	---	0.00	30.225 
19:10	27.0	27.0	27.0	78	21.1	0	0	---	0.00	30.225 
19:15	26.9	26.9	26.9	78	21.0	0	0	---	0.00	30.229 
19:20	26.6	26.6	26.6	79	21.0	0	0	---	0.00	30.229 
19:25	26.4	26.4	26.4	79	20.8	0	0	---	0.00	30.229 
19:30	26.1	26.1	26.1	79	20.5	0	0	---	0.00	30.233 
19:35	26.0	26.0	26.0	80	20.7	0	0	---	0.00	30.233 
19:40	25.8	25.8	25.8	80	20.5	0	0	---	0.00	30.233 
19:45	25.6	25.6	25.6	80	20.3	0	0	---	0.00	30.235 
19:50	25.3	25.3	25.3	80	20.0	0	0	---	0.00	30.235 
19:55	25.1	25.1	25.1	80	19.8	0	0	---	0.00	30.235 
20:00	24.8	24.8	24.8	81	19.8	0	0	---	0.00	30.235 
20:05	24.5	24.5	24.5	81	19.5	0	0	---	0.00	30.235 
20:10	24.4	24.4	24.4	81	19.4	0	0	---	0.00	30.235 
20:15	24.4	24.4	24.4	82	19.7	0	0	---	0.00	30.235 
20:20	24.4	24.4	24.4	83	20.0	0	0	---	0.00	30.235 
20:25	24.4	24.4	24.4	83	20.0	0	0	---	0.00	30.235 
20:30	24.4	24.4	24.4	84	20.3	0	0	---	0.00	30.228 
20:35	24.4	24.4	24.4	84	20.3	0	0	---	0.00	30.228 
20:40	24.5	24.5	24.5	84	20.4	0	0	---	0.00	30.228 
20:45	24.8	24.8	24.8	85	20.9	0	0	---	0.00	30.221 
20:50	25.0	25.0	25.0	84	20.9	0	0	---	0.00	30.221 
20:55	25.0	25.0	25.0	84	20.9	0	0	---	0.00	30.221 
21:00	25.0	25.0	25.0	84	20.9	0	0	---	0.00	30.221 
21:05	25.0	25.0	25.0	85	21.1	0	0	---	0.00	30.221 
21:10	25.1	25.1	25.1	85	21.2	0	0	---	0.00	30.221 
21:15	25.1	25.1	25.1	85	21.2	0	0	---	0.00	30.219 
21:20	25.1	25.1	25.1	84	21.0	0	0	---	0.00	30.219 
21:25	25.0	25.0	25.0	84	20.9	0	0	---	0.00	30.219 
21:30	25.0	25.0	25.0	84	20.9	0	0	---	0.00	30.218 
21:35	24.8	24.8	24.8	84	20.7	0	0	---	0.00	30.218 
21:40	24.5	24.5	24.5	84	20.4	0	0	---	0.00	30.218 
21:45	24.2	24.2	24.2	84	20.1	0	0	---	0.00	30.218 
21:50	23.9	23.9	23.9	84	19.8	0	0	---	0.00	30.218 
21:55	23.8	23.8	23.8	84	19.7	0	0	---	0.00	30.218 
22:00	23.5	23.5	23.5	84	19.4	0	0	---	0.00	30.216 
22:05	23.2	23.2	23.2	84	19.1	0	0	---	0.00	30.216 
22:10	22.9	22.9	22.9	84	18.8	0	0	---	0.00	30.216 
22:15	22.7	22.7	22.7	84	18.6	0	0	---	0.00	30.215 
22:20	22.5	22.5	22.5	85	18.7	0	0	---	0.00	30.215 
22:25	22.5	22.5	22.5	85	18.7	0	0	---	0.00	30.215 
22:30	22.4	22.4	22.4	85	18.6	0	0	---	0.00	30.211 
22:35	22.2	22.2	22.2	85	18.4	0	0	---	0.00	30.211 
22:40	22.1	22.1	22.1	85	18.3	0	0	---	0.00	30.211 
22:45	21.9	21.9	21.9	86	18.4	0	0	---	0.00	30.212 
22:50	21.9	21.9	21.9	86	18.4	0	0	---	0.00	30.212 
22:55	21.8	21.8	21.8	86	18.3	0	0	---	0.00	30.212 
23:00	21.8	21.8	21.8	86	18.3	0	0	---	0.00	30.207 
23:05	21.9	21.9	21.9	87	18.6	0	0	---	0.00	30.207 
23:10	22.4	22.4	22.4	88	19.4	0	0	---	0.00	30.207 
23:15	22.5	22.5	22.5	88	19.5	0	0	---	0.00	30.204 
23:20	22.9	22.9	22.9	88	19.9	0	1	292	0.00	30.204 
23:25	23.0	23.0	23.0	88	20.0	0	0	---	0.00	30.204 
23:30	23.0	23.0	23.0	88	20.0	0	0	---	0.00	30.199 
23:35	23.2	23.2	23.2	88	20.2	0	0	---	0.00	30.199 
23:40	23.3	23.3	23.3	88	20.3	0	1	292	0.00	30.199 
23:45	23.5	23.5	23.5	88	20.5	0	1	292	0.00	30.191 
23:50	23.6	23.6	23.6	88	20.6	0	1	292	0.00	30.191 
23:55	23.8	23.8	23.8	88	20.8	0	0	---	0.00	30.191 

CoCoRaHS
IN-AL-39
A2 Web Hosting
Creative Commons License
GoDaddy
search engine by freefind advanced

loaded 2018-11-15 17:48:50 • last modified 2010-11-18 10:43:29
Privacy PolicyDisclaimer
• wx.awcolley.com is powered by PmWiki v.2002016 •
• all content (unless otherwise noted) © 2018 A W Colley